Time;durP1;ratioP1;P1;durP2;ratioP2;P2;SDS_P1;SDS_P2;PMS_P1;PMS_P2;Temp;Humidity;BMP_temperature;BMP_pressure;BME280_temperature;BME280_humidity;BME280_pressure;Samples;Min_cycle;Max_cycle;Signal;HPM_P1;HPM_P2
2022/04/16 00:02:19;;;;;;;1.65;1.48;;;;;;;;;;4377560;32;20120;-69
2022/04/16 00:04:47;;;;;;;3.35;1.55;;;;;;;;;;4389857;32;20158;-69
2022/04/16 00:07:13;;;;;;;4.05;1.70;;;;;;;;;;4391709;32;20505;-69
2022/04/16 00:09:41;;;;;;;2.80;1.90;;;;;;;;;;4391627;32;20077;-70
2022/04/16 00:12:09;;;;;;;3.15;1.95;;;;;;;;;;4389988;32;20074;-70
2022/04/16 00:14:38;;;;;;;3.65;1.67;;;;;;;;;;4389901;32;20078;-68
2022/04/16 00:17:05;;;;;;;3.53;1.48;;;;;;;;;;4389727;32;20173;-70
2022/04/16 00:19:32;;;;;;;2.10;1.48;;;;;;;;;;4377321;32;20073;-68
2022/04/16 00:22:00;;;;;;;3.78;2.17;;;;;;;;;;4377903;32;20066;-69
2022/04/16 00:24:29;;;;;;;2.70;1.55;;;;;;;;;;4389738;32;20077;-70
2022/04/16 00:26:56;;;;;;;3.08;1.80;;;;;;;;;;4389787;32;20073;-70
2022/04/16 00:29:23;;;;;;;3.10;1.67;;;;;;;;;;4391236;32;20093;-69
2022/04/16 00:31:50;;;;;;;3.08;1.40;;;;;;;;;;4378277;32;20066;-69
2022/04/16 00:34:18;;;;;;;2.55;1.65;;;;;;;;;;4390256;32;20100;-69
2022/04/16 00:36:45;;;;;;;3.45;1.55;;;;;;;;;;4391455;32;20100;-68
2022/04/16 00:39:12;;;;;;;2.08;1.60;;;;;;;;;;4377675;32;20081;-67
2022/04/16 00:41:39;;;;;;;4.55;2.10;;;;;;;;;;4389564;32;20085;-69
2022/04/16 00:44:06;;;;;;;3.62;1.70;;;;;;;;;;4364609;32;20097;-70
2022/04/16 00:46:34;;;;;;;3.17;1.87;;;;;;;;;;4389425;32;20519;-69
2022/04/16 00:49:01;;;;;;;3.45;2.10;;;;;;;;;;4367168;32;20516;-69
2022/04/16 00:51:28;;;;;;;2.47;1.52;;;;;;;;;;4392747;32;20137;-69
2022/04/16 00:53:55;;;;;;;1.70;1.30;;;;;;;;;;4380479;32;20164;-69
2022/04/16 00:56:22;;;;;;;3.08;1.58;;;;;;;;;;4367449;32;20117;-68
2022/04/16 00:58:49;;;;;;;3.65;1.92;;;;;;;;;;4394050;32;20074;-68
2022/04/16 01:01:16;;;;;;;1.95;1.52;;;;;;;;;;4380469;32;20074;-70
2022/04/16 01:03:45;;;;;;;2.90;1.60;;;;;;;;;;4380555;32;20151;-70
2022/04/16 01:06:14;;;;;;;2.80;1.67;;;;;;;;;;4393618;32;20100;-69
2022/04/16 01:08:45;;;;;;;1.92;1.48;;;;;;;;;;4392302;32;20081;-69
2022/04/16 01:11:12;;;;;;;2.28;1.20;;;;;;;;;;4380469;32;20077;-69
2022/04/16 01:13:40;;;;;;;2.17;1.73;;;;;;;;;;4379719;32;20096;-69
2022/04/16 01:16:06;;;;;;;2.45;1.30;;;;;;;;;;4392339;32;20159;-68
2022/04/16 01:18:34;;;;;;;2.00;1.50;;;;;;;;;;4392687;32;20164;-68
2022/04/16 01:21:04;;;;;;;3.70;1.73;;;;;;;;;;4379645;32;20456;-70
2022/04/16 01:23:30;;;;;;;1.48;1.33;;;;;;;;;;4392345;32;20073;-69
2022/04/16 01:25:57;;;;;;;1.87;1.37;;;;;;;;;;4392237;32;20528;-69
2022/04/16 01:28:24;;;;;;;2.17;1.50;;;;;;;;;;4392651;32;20093;-69
2022/04/16 01:30:50;;;;;;;3.40;1.40;;;;;;;;;;4367653;32;20186;-68
2022/04/16 01:33:17;;;;;;;2.12;1.60;;;;;;;;;;4392059;32;20152;-69
2022/04/16 01:35:44;;;;;;;2.45;1.58;;;;;;;;;;4395376;32;20069;-67
2022/04/16 01:38:11;;;;;;;3.40;1.50;;;;;;;;;;4400288;32;20232;-69
2022/04/16 01:40:38;;;;;;;2.85;1.80;;;;;;;;;;4396342;32;20096;-68
2022/04/16 01:43:05;;;;;;;2.87;1.83;;;;;;;;;;4394750;32;20089;-70
2022/04/16 01:45:33;;;;;;;1.92;1.40;;;;;;;;;;4392633;32;20085;-70
2022/04/16 01:48:00;;;;;;;1.85;1.40;;;;;;;;;;4391913;32;20511;-70
2022/04/16 01:50:27;;;;;;;4.47;1.55;;;;;;;;;;4367038;32;20093;-69
2022/04/16 01:52:54;;;;;;;3.03;1.65;;;;;;;;;;4391806;32;20102;-67
2022/04/16 01:55:21;;;;;;;2.65;1.60;;;;;;;;;;4379346;32;20061;-70
2022/04/16 01:57:47;;;;;;;1.95;1.42;;;;;;;;;;4367328;32;20167;-67
2022/04/16 02:00:14;;;;;;;3.60;1.62;;;;;;;;;;4391783;32;20083;-69
2022/04/16 02:02:42;;;;;;;2.40;1.60;;;;;;;;;;4379257;32;20091;-67
2022/04/16 02:05:10;;;;;;;3.37;1.60;;;;;;;;;;4378799;32;20085;-69
2022/04/16 02:07:38;;;;;;;3.15;1.60;;;;;;;;;;4391957;32;20082;-70
2022/04/16 02:10:05;;;;;;;4.93;1.60;;;;;;;;;;4391688;32;20070;-69
2022/04/16 02:12:32;;;;;;;3.05;1.80;;;;;;;;;;4379299;32;20101;-69
2022/04/16 02:14:59;;;;;;;1.92;1.70;;;;;;;;;;4378821;32;20087;-70
2022/04/16 02:17:25;;;;;;;2.97;1.70;;;;;;;;;;4391047;32;20586;-70
2022/04/16 02:19:52;;;;;;;2.33;1.60;;;;;;;;;;4393616;32;20076;-70
2022/04/16 02:22:19;;;;;;;6.40;1.58;;;;;;;;;;4391613;32;20233;-70
2022/04/16 02:24:46;;;;;;;2.40;1.90;;;;;;;;;;4378684;32;20069;-70
2022/04/16 02:27:13;;;;;;;2.65;1.40;;;;;;;;;;4392644;32;20093;-70
2022/04/16 02:29:40;;;;;;;2.90;1.77;;;;;;;;;;4391745;32;20464;-68
2022/04/16 02:32:06;;;;;;;6.30;1.80;;;;;;;;;;4392390;32;20065;-70
2022/04/16 02:34:33;;;;;;;2.62;1.52;;;;;;;;;;4391572;32;20098;-71
2022/04/16 02:37:00;;;;;;;2.17;1.77;;;;;;;;;;4391857;32;20511;-69
2022/04/16 02:39:26;;;;;;;3.22;1.65;;;;;;;;;;4391181;32;20077;-68
2022/04/16 02:41:53;;;;;;;3.65;1.67;;;;;;;;;;4391483;32;20093;-70
2022/04/16 02:47:05;;;;;;;3.83;1.73;;;;;;;;;;4392656;32;20068;-70
2022/04/16 02:49:36;;;;;;;3.08;1.67;;;;;;;;;;4391714;32;20157;-69
2022/04/16 02:52:03;;;;;;;4.22;2.00;;;;;;;;;;4378928;32;20084;-69
2022/04/16 02:54:30;;;;;;;2.97;1.67;;;;;;;;;;4393171;32;20157;-68
2022/04/16 02:56:56;;;;;;;4.10;1.98;;;;;;;;;;4384712;32;20099;-70
2022/04/16 02:59:23;;;;;;;2.90;1.92;;;;;;;;;;4385281;32;20086;-68
2022/04/16 03:01:50;;;;;;;4.45;1.80;;;;;;;;;;4396314;32;20081;-68
2022/04/16 03:04:17;;;;;;;5.30;1.92;;;;;;;;;;4392371;32;20161;-74
2022/04/16 03:06:44;;;;;;;4.70;2.00;;;;;;;;;;4393113;32;20081;-69
2022/04/16 03:09:11;;;;;;;3.85;1.83;;;;;;;;;;4393008;32;20074;-69
2022/04/16 03:11:38;;;;;;;2.85;1.60;;;;;;;;;;4392016;32;20087;-69
2022/04/16 03:17:31;;;;;;;3.80;1.75;;;;;;;;;;4396780;32;20167;-69
2022/04/16 03:19:36;;;;;;;3.08;1.77;;;;;;;;;;4400804;32;20087;-69
2022/04/16 03:22:03;;;;;;;3.30;1.87;;;;;;;;;;4399812;32;20085;-69
2022/04/16 03:24:30;;;;;;;4.57;1.85;;;;;;;;;;4373360;32;20149;-69
2022/04/16 03:26:57;;;;;;;3.15;1.92;;;;;;;;;;4398156;32;20138;-68
2022/04/16 03:29:23;;;;;;;2.65;1.67;;;;;;;;;;4397080;32;20082;-68
2022/04/16 03:31:50;;;;;;;3.90;1.75;;;;;;;;;;4397805;32;20086;-69
2022/04/16 03:34:17;;;;;;;3.12;1.90;;;;;;;;;;4397722;32;20141;-70
2022/04/16 03:36:43;;;;;;;5.20;2.08;;;;;;;;;;4401060;32;20074;-69
2022/04/16 03:39:10;;;;;;;4.32;1.90;;;;;;;;;;4385768;32;20157;-70
2022/04/16 03:41:38;;;;;;;6.00;2.22;;;;;;;;;;4392477;32;20061;-69
2022/04/16 03:44:06;;;;;;;4.43;1.85;;;;;;;;;;4391782;32;20066;-70
2022/04/16 03:46:33;;;;;;;6.60;2.28;;;;;;;;;;4391274;32;20074;-69
2022/04/16 03:49:00;;;;;;;3.17;1.90;;;;;;;;;;4377634;32;20082;-69
2022/04/16 03:51:27;;;;;;;3.78;2.03;;;;;;;;;;4390607;32;20431;-70
2022/04/16 03:53:54;;;;;;;4.68;2.03;;;;;;;;;;4389931;32;20086;-69
2022/04/16 04:01:51;;;;;;;2.80;1.87;;;;;;;;;;4391703;32;20073;-68
2022/04/16 04:04:17;;;;;;;3.45;1.95;;;;;;;;;;4377214;32;20170;-69
2022/04/16 04:06:44;;;;;;;5.87;2.10;;;;;;;;;;4391735;32;20185;-69
2022/04/16 04:09:11;;;;;;;3.00;1.60;;;;;;;;;;4390194;32;20523;-70
2022/04/16 04:11:37;;;;;;;2.35;1.60;;;;;;;;;;4377330;32;20078;-70
2022/04/16 04:14:04;;;;;;;3.65;1.90;;;;;;;;;;4391455;32;20084;-70
2022/04/16 04:16:31;;;;;;;1.65;1.55;;;;;;;;;;4391564;32;20084;-70
2022/04/16 04:18:57;;;;;;;2.78;1.48;;;;;;;;;;4391211;32;20156;-69
2022/04/16 04:21:24;;;;;;;2.72;1.73;;;;;;;;;;4390509;32;20073;-70
2022/04/16 04:23:50;;;;;;;5.15;2.10;;;;;;;;;;4394707;32;20085;-69
2022/04/16 04:26:17;;;;;;;3.47;1.90;;;;;;;;;;4392833;32;20074;-68
2022/04/16 04:28:43;;;;;;;2.62;1.60;;;;;;;;;;4394488;32;20069;-69
2022/04/16 04:31:10;;;;;;;5.22;2.10;;;;;;;;;;4367706;32;20517;-69
2022/04/16 04:33:37;;;;;;;4.10;1.73;;;;;;;;;;4394469;32;20156;-70
2022/04/16 04:36:03;;;;;;;3.53;1.92;;;;;;;;;;4394446;32;20093;-69
2022/04/16 04:38:30;;;;;;;3.67;1.75;;;;;;;;;;4380273;32;20150;-71
2022/04/16 04:40:58;;;;;;;5.05;2.15;;;;;;;;;;4394140;32;20081;-70
2022/04/16 04:43:26;;;;;;;4.55;1.62;;;;;;;;;;4379952;32;20104;-68
2022/04/16 04:45:52;;;;;;;4.15;1.80;;;;;;;;;;4392826;32;20076;-70
2022/04/16 04:48:19;;;;;;;2.97;1.85;;;;;;;;;;4393739;32;20078;-68
2022/04/16 04:50:45;;;;;;;3.00;1.90;;;;;;;;;;4394063;32;20522;-71
2022/04/16 04:53:12;;;;;;;4.05;1.87;;;;;;;;;;4394391;32;20077;-70
2022/04/16 04:55:39;;;;;;;2.90;1.70;;;;;;;;;;4383540;32;20568;-70
2022/04/16 04:58:05;;;;;;;3.47;1.60;;;;;;;;;;4381482;32;20497;-69
2022/04/16 05:00:32;;;;;;;2.25;1.60;;;;;;;;;;4392911;32;20066;-70
2022/04/16 05:02:59;;;;;;;2.83;1.55;;;;;;;;;;4393228;32;20100;-71
2022/04/16 05:05:25;;;;;;;3.17;1.70;;;;;;;;;;4392161;32;20078;-71
2022/04/16 05:07:52;;;;;;;2.00;1.30;;;;;;;;;;4392495;32;20521;-69
2022/04/16 05:10:19;;;;;;;2.25;1.30;;;;;;;;;;4392406;32;20074;-70
2022/04/16 05:12:45;;;;;;;4.80;1.73;;;;;;;;;;4392130;32;20099;-67
2022/04/16 05:15:12;;;;;;;6.28;2.47;;;;;;;;;;4392482;32;20062;-71
2022/04/16 05:17:40;;;;;;;2.35;1.75;;;;;;;;;;4392925;32;20070;-72
2022/04/16 05:20:08;;;;;;;1.67;1.23;;;;;;;;;;4393564;32;20074;-72
2022/04/16 05:22:35;;;;;;;2.62;1.65;;;;;;;;;;4392794;32;20099;-72
2022/04/16 05:25:01;;;;;;;5.03;2.12;;;;;;;;;;4393364;32;20093;-71
2022/04/16 05:27:30;;;;;;;2.05;1.52;;;;;;;;;;4393452;32;20157;-72
2022/04/16 05:30:04;;;;;;;1.73;1.30;;;;;;;;;;4392031;32;20082;-68
2022/04/16 05:32:39;;;;;;;4.28;1.37;;;;;;;;;;4393338;32;20085;-70
2022/04/16 05:35:07;;;;;;;3.70;1.98;;;;;;;;;;4391971;32;20073;-72
2022/04/16 05:37:34;;;;;;;4.32;1.40;;;;;;;;;;4392114;32;20219;-70
2022/04/16 05:40:01;;;;;;;1.67;1.10;;;;;;;;;;4392591;32;20090;-71
2022/04/16 05:42:28;;;;;;;5.57;1.62;;;;;;;;;;4379334;32;20186;-72
2022/04/16 05:45:00;;;;;;;1.42;1.20;;;;;;;;;;4379714;32;20073;-72
2022/04/16 05:47:27;;;;;;;2.55;1.40;;;;;;;;;;4380032;32;20077;-71
2022/04/16 05:49:55;;;;;;;2.12;1.37;;;;;;;;;;4391696;32;20142;-71
2022/04/16 05:52:22;;;;;;;1.67;1.33;;;;;;;;;;4379632;32;20451;-71
2022/04/16 05:54:49;;;;;;;5.57;1.58;;;;;;;;;;4379243;32;20149;-70
2022/04/16 05:57:17;;;;;;;1.67;1.20;;;;;;;;;;4392116;32;20085;-72
2022/04/16 05:59:44;;;;;;;2.72;1.42;;;;;;;;;;4391726;32;20084;-71
2022/04/16 06:02:11;;;;;;;1.42;1.12;;;;;;;;;;4391663;32;20526;-70
2022/04/16 06:04:38;;;;;;;5.75;1.85;;;;;;;;;;4378498;32;20520;-70
2022/04/16 06:07:05;;;;;;;2.25;0.98;;;;;;;;;;4391521;32;20092;-70
2022/04/16 06:09:31;;;;;;;2.58;1.25;;;;;;;;;;4391283;32;20070;-68
2022/04/16 06:12:05;;;;;;;2.25;1.30;;;;;;;;;;4391381;32;20080;-70
2022/04/16 06:14:32;;;;;;;1.35;1.17;;;;;;;;;;4391361;32;20105;-72
2022/04/16 06:16:59;;;;;;;1.10;1.00;;;;;;;;;;4393024;32;20085;-73
2022/04/16 06:19:26;;;;;;;2.75;1.10;;;;;;;;;;4391342;32;20109;-72
2022/04/16 06:21:52;;;;;;;1.62;1.30;;;;;;;;;;4378863;32;20174;-72
2022/04/16 06:24:19;;;;;;;1.40;1.10;;;;;;;;;;4391169;32;20526;-73
2022/04/16 06:26:47;;;;;;;1.37;1.23;;;;;;;;;;4366213;32;20086;-70
2022/04/16 06:29:14;;;;;;;0.77;0.77;;;;;;;;;;4391219;32;20062;-72
2022/04/16 06:31:42;;;;;;;2.03;1.50;;;;;;;;;;4391721;32;20080;-72
2022/04/16 06:34:09;;;;;;;5.43;1.70;;;;;;;;;;4391205;32;20597;-68
2022/04/16 06:36:38;;;;;;;2.55;1.33;;;;;;;;;;4392892;32;20081;-68
2022/04/16 06:39:04;;;;;;;4.93;1.80;;;;;;;;;;4378959;32;20172;-68
2022/04/16 06:41:31;;;;;;;4.47;1.77;;;;;;;;;;4378484;32;20081;-70
2022/04/16 06:43:57;;;;;;;4.18;1.75;;;;;;;;;;4392521;32;20166;-68
2022/04/16 06:46:24;;;;;;;3.00;1.42;;;;;;;;;;4389999;32;20077;-70
2022/04/16 06:48:51;;;;;;;5.87;1.87;;;;;;;;;;4392392;32;20583;-71
2022/04/16 06:51:17;;;;;;;5.53;1.60;;;;;;;;;;4390935;32;20156;-70
2022/04/16 06:53:44;;;;;;;4.37;1.50;;;;;;;;;;4392318;32;20090;-69
2022/04/16 06:56:11;;;;;;;4.45;1.90;;;;;;;;;;4378604;32;20085;-69
2022/04/16 06:58:37;;;;;;;3.58;1.85;;;;;;;;;;4391937;32;20081;-70
2022/04/16 07:01:04;;;;;;;6.00;1.25;;;;;;;;;;4392078;32;20156;-70
2022/04/16 07:03:31;;;;;;;2.30;1.15;;;;;;;;;;4391905;32;20081;-69
2022/04/16 07:05:57;;;;;;;4.85;1.52;;;;;;;;;;4390213;32;20078;-70
2022/04/16 07:08:24;;;;;;;1.60;1.10;;;;;;;;;;4390810;32;20094;-68
2022/04/16 07:10:50;;;;;;;2.92;1.60;;;;;;;;;;4390685;32;20077;-69
2022/04/16 07:13:17;;;;;;;1.20;1.10;;;;;;;;;;4377757;32;20180;-68
2022/04/16 07:15:45;;;;;;;2.92;1.52;;;;;;;;;;4390673;32;20166;-72
2022/04/16 07:18:11;;;;;;;4.82;1.40;;;;;;;;;;4390306;32;20074;-71
2022/04/16 07:20:38;;;;;;;2.47;1.65;;;;;;;;;;4390643;32;20181;-70
2022/04/16 07:23:05;;;;;;;1.83;1.33;;;;;;;;;;4365488;32;20072;-71
2022/04/16 07:25:33;;;;;;;2.17;1.37;;;;;;;;;;4390344;32;20073;-72
2022/04/16 07:27:59;;;;;;;2.15;1.50;;;;;;;;;;4391558;32;20524;-70
2022/04/16 07:30:27;;;;;;;1.23;1.12;;;;;;;;;;4378296;32;20168;-72
2022/04/16 07:32:54;;;;;;;4.03;1.62;;;;;;;;;;4391997;32;20097;-71
2022/04/16 07:35:21;;;;;;;5.47;2.05;;;;;;;;;;4391480;32;20147;-72
2022/04/16 07:37:48;;;;;;;3.83;2.08;;;;;;;;;;4390299;32;20085;-71
2022/04/16 07:40:14;;;;;;;3.08;1.60;;;;;;;;;;4377827;32;20078;-72
2022/04/16 07:42:41;;;;;;;2.50;1.83;;;;;;;;;;4391396;32;20140;-72
2022/04/16 07:45:08;;;;;;;3.37;1.98;;;;;;;;;;4391357;32;20459;-72
2022/04/16 07:47:35;;;;;;;2.50;1.48;;;;;;;;;;4389893;32;20146;-70
2022/04/16 07:50:02;;;;;;;5.57;1.75;;;;;;;;;;4391393;32;20077;-70
2022/04/16 07:52:29;;;;;;;4.43;1.30;;;;;;;;;;4391438;32;20100;-72
2022/04/16 07:54:55;;;;;;;2.70;1.70;;;;;;;;;;4390103;32;20523;-69
2022/04/16 07:57:22;;;;;;;1.83;1.60;;;;;;;;;;4389972;32;20141;-71
2022/04/16 07:59:48;;;;;;;1.73;1.40;;;;;;;;;;4365119;32;20495;-71
2022/04/16 08:02:15;;;;;;;5.53;1.77;;;;;;;;;;4391547;32;20085;-72
2022/04/16 08:04:42;;;;;;;3.78;1.80;;;;;;;;;;4390382;32;20169;-71
2022/04/16 08:07:08;;;;;;;2.72;1.60;;;;;;;;;;4390059;32;20157;-72
2022/04/16 08:09:35;;;;;;;2.05;1.52;;;;;;;;;;4379121;32;20092;-71
2022/04/16 08:12:02;;;;;;;4.10;1.87;;;;;;;;;;4387603;32;20162;-71
2022/04/16 08:14:29;;;;;;;9.63;2.05;;;;;;;;;;4381562;32;20081;-71
2022/04/16 08:16:56;;;;;;;4.20;2.05;;;;;;;;;;4378236;32;20082;-72
2022/04/16 08:19:23;;;;;;;2.08;1.25;;;;;;;;;;4390339;32;20093;-71
2022/04/16 08:21:50;;;;;;;5.10;1.45;;;;;;;;;;4391731;32;20085;-71
2022/04/16 08:24:39;;;;;;;2.85;1.45;;;;;;;;;;4389987;32;20082;-71
2022/04/16 08:27:06;;;;;;;9.95;2.50;;;;;;;;;;4377281;32;20077;-71
2022/04/16 08:29:33;;;;;;;5.10;1.92;;;;;;;;;;4377516;32;20156;-71
2022/04/16 08:32:01;;;;;;;5.55;2.00;;;;;;;;;;4390134;32;20153;-72
2022/04/16 08:34:28;;;;;;;7.87;2.08;;;;;;;;;;4389789;32;20150;-72
2022/04/16 08:36:54;;;;;;;2.65;1.87;;;;;;;;;;4390025;32;20150;-71
2022/04/16 08:39:21;;;;;;;3.83;1.90;;;;;;;;;;4377783;32;20169;-71
2022/04/16 08:41:48;;;;;;;2.05;1.60;;;;;;;;;;4391002;32;20062;-72
2022/04/16 08:44:19;;;;;;;2.22;2.00;;;;;;;;;;4389676;32;20092;-72
2022/04/16 08:46:46;;;;;;;2.58;1.75;;;;;;;;;;4377259;32;20467;-71
2022/04/16 08:49:13;;;;;;;1.73;1.58;;;;;;;;;;4364515;32;20157;-72
2022/04/16 08:51:40;;;;;;;3.42;1.92;;;;;;;;;;4391683;32;20084;-72
2022/04/16 08:54:06;;;;;;;4.43;1.95;;;;;;;;;;4389751;32;20070;-71
2022/04/16 08:56:33;;;;;;;4.70;2.15;;;;;;;;;;4376970;32;20074;-71
2022/04/16 08:59:00;;;;;;;4.90;2.10;;;;;;;;;;4390912;32;20523;-72
2022/04/16 09:01:26;;;;;;;2.25;1.52;;;;;;;;;;4389356;32;20090;-71
2022/04/16 09:03:58;;;;;;;2.85;1.83;;;;;;;;;;4377005;32;20085;-71
2022/04/16 09:06:26;;;;;;;2.70;1.42;;;;;;;;;;4389433;32;20463;-71
2022/04/16 09:08:52;;;;;;;1.83;1.55;;;;;;;;;;4390484;32;20100;-71
2022/04/16 09:11:26;;;;;;;2.00;1.45;;;;;;;;;;4393943;32;20070;-72
2022/04/16 09:13:56;;;;;;;1.73;1.40;;;;;;;;;;4380784;32;20081;-71
2022/04/16 09:16:23;;;;;;;2.95;1.42;;;;;;;;;;4392156;32;20093;-71
2022/04/16 09:18:54;;;;;;;2.65;1.75;;;;;;;;;;4393139;32;20100;-71
2022/04/16 09:21:25;;;;;;;2.90;1.73;;;;;;;;;;4392899;32;20078;-71
2022/04/16 09:23:53;;;;;;;2.42;1.62;;;;;;;;;;4380280;32;20088;-72
2022/04/16 09:26:30;;;;;;;3.78;1.90;;;;;;;;;;4367415;32;20116;-71
2022/04/16 09:28:57;;;;;;;2.65;1.55;;;;;;;;;;4379770;32;20169;-71
2022/04/16 09:31:28;;;;;;;2.30;1.62;;;;;;;;;;4379803;32;20166;-71
2022/04/16 09:33:55;;;;;;;4.47;2.78;;;;;;;;;;4394183;32;20077;-71
2022/04/16 09:36:26;;;;;;;2.90;1.90;;;;;;;;;;4383398;32;20073;-71
2022/04/16 09:39:07;;;;;;;2.78;1.60;;;;;;;;;;4386806;32;20073;-71
2022/04/16 09:41:34;;;;;;;5.28;2.25;;;;;;;;;;4403777;32;20161;-73
2022/04/16 09:44:01;;;;;;;4.05;1.95;;;;;;;;;;4403355;32;20496;-71
2022/04/16 09:46:30;;;;;;;3.80;2.00;;;;;;;;;;4392428;32;20097;-71
2022/04/16 09:49:02;;;;;;;4.22;1.90;;;;;;;;;;4379726;32;20102;-71
2022/04/16 09:51:34;;;;;;;5.20;1.85;;;;;;;;;;4392191;32;20077;-70
2022/04/16 09:54:06;;;;;;;3.83;2.22;;;;;;;;;;4391996;32;20076;-71
2022/04/16 09:56:34;;;;;;;3.28;1.67;;;;;;;;;;4379159;32;20077;-71
2022/04/16 09:59:03;;;;;;;4.68;2.10;;;;;;;;;;4379240;32;20448;-72
2022/04/16 10:01:31;;;;;;;4.57;2.40;;;;;;;;;;4366592;32;20086;-71
2022/04/16 10:04:00;;;;;;;2.50;2.10;;;;;;;;;;4391675;32;20090;-72
2022/04/16 10:06:31;;;;;;;4.87;2.15;;;;;;;;;;4379512;32;20094;-71
2022/04/16 10:09:00;;;;;;;4.95;2.80;;;;;;;;;;4379271;32;20161;-71
2022/04/16 10:12:59;;;;;;;3.20;2.40;;;;;;;;;;4391658;32;20081;-70
2022/04/16 10:14:38;;;;;;;4.37;2.47;;;;;;;;;;4381864;32;20455;-70
2022/04/16 10:17:16;;;;;;;3.40;1.80;;;;;;;;;;4393139;32;20504;-71
2022/04/16 10:19:47;;;;;;;2.78;2.22;;;;;;;;;;4378763;32;20090;-72
2022/04/16 10:22:28;;;;;;;5.30;2.33;;;;;;;;;;4392187;32;20158;-72
2022/04/16 10:24:58;;;;;;;6.62;2.78;;;;;;;;;;4391096;32;20062;-72
2022/04/16 10:27:38;;;;;;;7.22;2.28;;;;;;;;;;4392201;32;20158;-72
2022/04/16 10:30:12;;;;;;;4.45;2.12;;;;;;;;;;4378442;32;20074;-72
2022/04/16 10:32:43;;;;;;;3.45;2.30;;;;;;;;;;4378969;32;20504;-73
2022/04/16 10:35:15;;;;;;;5.07;2.40;;;;;;;;;;4378418;32;20081;-73
2022/04/16 10:37:44;;;;;;;5.00;2.45;;;;;;;;;;4378532;32;20088;-73
2022/04/16 10:40:25;;;;;;;7.97;2.40;;;;;;;;;;4379074;32;20081;-73
2022/04/16 10:43:01;;;;;;;4.90;2.62;;;;;;;;;;4379038;32;20158;-73
2022/04/16 10:45:33;;;;;;;;;;;;;;;;;;4391439;32;20133;-73
2022/04/16 10:48:02;;;;;;;5.62;2.58;;;;;;;;;;4377962;32;19969;-72
2022/04/16 10:50:31;;;;;;;9.10;3.72;;;;;;;;;;4378323;32;20158;-72
2022/04/16 10:53:00;;;;;;;6.37;2.50;;;;;;;;;;4390467;32;20556;-73
2022/04/16 10:55:31;;;;;;;5.37;2.37;;;;;;;;;;4390784;32;20093;-73
2022/04/16 10:58:05;;;;;;;6.68;2.62;;;;;;;;;;4391218;32;20095;-72
2022/04/16 11:00:45;;;;;;;7.93;2.60;;;;;;;;;;4390991;32;20496;-72
2022/04/16 11:03:28;;;;;;;4.00;2.60;;;;;;;;;;4378998;32;20138;-73
2022/04/16 11:06:05;;;;;;;4.97;2.67;;;;;;;;;;4390082;32;20512;-72
2022/04/16 11:08:35;;;;;;;6.00;2.95;;;;;;;;;;4365340;32;20586;-73
2022/04/16 11:11:05;;;;;;;5.72;2.90;;;;;;;;;;4377941;32;20082;-72
2022/04/16 11:13:33;;;;;;;2.78;2.22;;;;;;;;;;4378251;32;20097;-73
2022/04/16 11:16:01;;;;;;;5.47;2.65;;;;;;;;;;4390243;32;20084;-72
2022/04/16 11:18:37;;;;;;;6.50;2.70;;;;;;;;;;4392061;32;20068;-72
2022/04/16 11:21:08;;;;;;;5.18;2.50;;;;;;;;;;4390763;32;20093;-72
2022/04/16 11:23:45;;;;;;;7.40;3.20;;;;;;;;;;4390356;32;20104;-72
2022/04/16 11:34:30;;;;;;;3.92;2.78;;;;;;;;;;4381068;32;20156;-73
2022/04/16 11:36:58;;;;;;;4.25;2.67;;;;;;;;;;4390554;32;20096;-73
2022/04/16 11:39:30;;;;;;;4.22;2.80;;;;;;;;;;4391733;32;20100;-72
2022/04/16 11:41:59;;;;;;;5.05;2.85;;;;;;;;;;4390784;32;20492;-72
2022/04/16 11:44:52;;;;;;;8.13;2.80;;;;;;;;;;4390816;32;20502;-72
2022/04/16 11:47:22;;;;;;;5.62;2.58;;;;;;;;;;4389444;32;20468;-73
2022/04/16 11:49:54;;;;;;;5.00;2.90;;;;;;;;;;4391520;32;20086;-73
2022/04/16 11:52:24;;;;;;;5.28;2.80;;;;;;;;;;4389807;32;20066;-73
2022/04/16 11:55:16;;;;;;;6.82;2.85;;;;;;;;;;4391359;32;20072;-72
2022/04/16 11:57:53;;;;;;;6.25;2.58;;;;;;;;;;4390195;32;20161;-73
2022/04/16 12:00:21;;;;;;;6.93;3.15;;;;;;;;;;4389880;32;20085;-73
2022/04/16 12:02:54;;;;;;;4.15;2.60;;;;;;;;;;4389970;32;20074;-72
2022/04/16 12:05:30;;;;;;;5.68;2.72;;;;;;;;;;4389358;32;20094;-72
2022/04/16 12:07:56;;;;;;;7.60;3.12;;;;;;;;;;4377184;32;20068;-73
2022/04/16 12:10:24;;;;;;;5.07;3.30;;;;;;;;;;4377932;32;20177;-72
2022/04/16 12:12:53;;;;;;;5.47;3.00;;;;;;;;;;4377530;32;20085;-72
2022/04/16 12:15:27;;;;;;;7.50;3.37;;;;;;;;;;4389783;32;20085;-71
2022/04/16 12:17:55;;;;;;;8.82;3.80;;;;;;;;;;4391165;32;20104;-72
2022/04/16 12:20:23;;;;;;;5.32;2.87;;;;;;;;;;4377809;32;20074;-73
2022/04/16 12:22:51;;;;;;;6.32;3.35;;;;;;;;;;4391254;32;20161;-72
2022/04/16 12:25:23;;;;;;;5.70;2.67;;;;;;;;;;4389787;32;20160;-73
2022/04/16 12:27:52;;;;;;;4.65;2.80;;;;;;;;;;4376991;32;20085;-71
2022/04/16 12:30:37;;;;;;;5.72;2.47;;;;;;;;;;4377141;32;20088;-72
2022/04/16 12:33:10;;;;;;;6.32;2.65;;;;;;;;;;4389380;32;20069;-72
2022/04/16 12:35:44;;;;;;;6.28;2.78;;;;;;;;;;4377828;32;20082;-72
2022/04/16 12:38:15;;;;;;;8.00;2.90;;;;;;;;;;4377530;32;20077;-73
2022/04/16 12:40:43;;;;;;;7.80;2.40;;;;;;;;;;4389683;32;20464;-73
2022/04/16 12:43:09;;;;;;;3.92;2.30;;;;;;;;;;4379548;32;20096;-71
2022/04/16 12:45:36;;;;;;;4.97;3.08;;;;;;;;;;4380293;32;20082;-73
2022/04/16 12:48:03;;;;;;;5.20;2.17;;;;;;;;;;4393874;32;20492;-73
2022/04/16 12:50:31;;;;;;;5.47;2.25;;;;;;;;;;4379978;32;20165;-73
2022/04/16 12:53:01;;;;;;;3.85;2.33;;;;;;;;;;4392410;32;20070;-72
2022/04/16 12:55:29;;;;;;;6.37;2.05;;;;;;;;;;4393934;32;20168;-73
2022/04/16 12:57:56;;;;;;;8.60;2.50;;;;;;;;;;4392809;32;20097;-72
2022/04/16 13:00:22;;;;;;;3.83;2.40;;;;;;;;;;4380518;32;20173;-72
2022/04/16 13:02:49;;;;;;;4.40;2.62;;;;;;;;;;4392331;32;20066;-72
2022/04/16 13:05:17;;;;;;;6.62;2.78;;;;;;;;;;4392033;32;20085;-73
2022/04/16 13:07:44;;;;;;;7.15;3.10;;;;;;;;;;4392141;32;20069;-72
2022/04/16 13:10:13;;;;;;;5.25;2.95;;;;;;;;;;4392304;32;20073;-73
2022/04/16 13:12:40;;;;;;;6.50;2.70;;;;;;;;;;4380649;32;20074;-73
2022/04/16 13:15:08;;;;;;;5.85;2.75;;;;;;;;;;4392961;32;20564;-73
2022/04/16 13:17:36;;;;;;;13.60;3.33;;;;;;;;;;4380291;32;20074;-73
2022/04/16 13:20:04;;;;;;;6.15;3.47;;;;;;;;;;4379720;32;20069;-73
2022/04/16 13:22:30;;;;;;;7.55;3.50;;;;;;;;;;4392386;32;20173;-72
2022/04/16 13:24:57;;;;;;;7.75;3.80;;;;;;;;;;4380345;32;20082;-73
2022/04/16 13:27:24;;;;;;;10.55;4.18;;;;;;;;;;4392096;32;20436;-72
2022/04/16 13:29:50;;;;;;;6.87;4.28;;;;;;;;;;4391794;32;20520;-72
2022/04/16 13:32:17;;;;;;;15.30;7.43;;;;;;;;;;4392072;32;20081;-73
2022/04/16 13:34:45;;;;;;;9.52;4.80;;;;;;;;;;4391886;32;20092;-72
2022/04/16 13:37:12;;;;;;;12.45;5.15;;;;;;;;;;4393286;32;20488;-73
2022/04/16 13:42:24;;;;;;;13.25;5.97;;;;;;;;;;4381404;32;20077;-72
2022/04/16 13:44:52;;;;;;;9.10;4.60;;;;;;;;;;4392159;32;20104;-73
2022/04/16 13:47:20;;;;;;;9.18;4.87;;;;;;;;;;4392232;32;20093;-72
2022/04/16 13:49:48;;;;;;;10.15;4.97;;;;;;;;;;4391787;32;20150;-73
2022/04/16 13:52:15;;;;;;;9.32;5.20;;;;;;;;;;4379536;32;20088;-72
2022/04/16 13:54:42;;;;;;;10.45;4.90;;;;;;;;;;4378693;32;20161;-72
2022/04/16 13:57:09;;;;;;;7.93;5.05;;;;;;;;;;4393167;32;20141;-72
2022/04/16 13:59:36;;;;;;;8.13;4.80;;;;;;;;;;4366629;32;20089;-72
2022/04/16 14:02:04;;;;;;;11.40;6.25;;;;;;;;;;4378903;32;20101;-74
2022/04/16 14:05:42;;;;;;;10.63;6.22;;;;;;;;;;4391408;32;20536;-73
2022/04/16 14:07:18;;;;;;;13.10;5.60;;;;;;;;;;4391462;32;20107;-73
2022/04/16 14:09:45;;;;;;;10.63;6.05;;;;;;;;;;4378996;32;20077;-73
2022/04/16 14:12:15;;;;;;;9.05;5.90;;;;;;;;;;4391401;32;20062;-73
2022/04/16 14:14:42;;;;;;;10.25;4.97;;;;;;;;;;4391425;32;20111;-72
2022/04/16 14:17:09;;;;;;;10.05;5.82;;;;;;;;;;4391425;32;20092;-72
2022/04/16 14:19:36;;;;;;;13.95;6.07;;;;;;;;;;4391599;32;20081;-73
2022/04/16 14:22:04;;;;;;;11.50;5.65;;;;;;;;;;4378739;32;20520;-73
2022/04/16 14:24:31;;;;;;;14.35;6.50;;;;;;;;;;4392674;32;20081;-73
2022/04/16 14:26:58;;;;;;;17.52;7.32;;;;;;;;;;4391113;32;20109;-73
2022/04/16 14:29:24;;;;;;;11.85;6.82;;;;;;;;;;4391201;32;20089;-73
2022/04/16 14:31:51;;;;;;;13.43;7.05;;;;;;;;;;4378789;32;20077;-72
2022/04/16 14:34:21;;;;;;;13.27;6.87;;;;;;;;;;4390972;32;20151;-73
2022/04/16 14:36:47;;;;;;;17.75;6.55;;;;;;;;;;4379018;32;20069;-71
2022/04/16 14:39:14;;;;;;;12.35;6.30;;;;;;;;;;4378503;32;20081;-72
2022/04/16 14:41:41;;;;;;;9.93;5.80;;;;;;;;;;4391287;32;20155;-73
2022/04/16 14:44:08;;;;;;;8.95;5.03;;;;;;;;;;4378547;32;20174;-72
2022/04/16 14:46:36;;;;;;;10.65;6.10;;;;;;;;;;4378204;32;20085;-73
2022/04/16 14:49:05;;;;;;;10.68;5.57;;;;;;;;;;4391159;32;20073;-73
2022/04/16 14:51:33;;;;;;;9.32;5.03;;;;;;;;;;4392490;32;20092;-72
2022/04/16 14:54:03;;;;;;;9.18;5.15;;;;;;;;;;4378104;32;20109;-72
2022/04/16 14:56:29;;;;;;;9.75;4.87;;;;;;;;;;4392920;32;20169;-71
2022/04/16 14:58:58;;;;;;;10.25;5.05;;;;;;;;;;4390657;32;20516;-72
2022/04/16 15:01:25;;;;;;;12.23;4.93;;;;;;;;;;4392360;32;20165;-73
2022/04/16 15:03:51;;;;;;;10.30;5.65;;;;;;;;;;4365526;32;20086;-74
2022/04/16 15:06:18;;;;;;;11.85;6.70;;;;;;;;;;4376684;32;20092;-74
2022/04/16 15:08:44;;;;;;;13.00;5.78;;;;;;;;;;4392016;32;20069;-72
2022/04/16 15:11:11;;;;;;;14.27;6.57;;;;;;;;;;4392005;32;20078;-72
2022/04/16 15:13:38;;;;;;;13.32;5.82;;;;;;;;;;4378066;32;20072;-73